createdAt,value
2022-09-23T00:00:47.524Z,1018.88
2022-09-23T00:05:54.760Z,1018.79
2022-09-23T00:11:01.965Z,1018.81
2022-09-23T00:16:09.198Z,1018.83
2022-09-23T00:21:16.378Z,1018.84
2022-09-23T00:26:23.580Z,1018.89
2022-09-23T00:31:30.865Z,1018.93
2022-09-23T00:36:38.063Z,1018.86
2022-09-23T00:41:45.219Z,1018.86
2022-09-23T00:46:52.437Z,1018.81
2022-09-23T00:51:59.659Z,1018.77
2022-09-23T00:57:07.136Z,1018.66
2022-09-23T01:02:14.598Z,1018.66
2022-09-23T01:07:21.889Z,1018.67
2022-09-23T01:12:29.122Z,1018.67
2022-09-23T01:17:36.386Z,1018.63
2022-09-23T01:22:43.585Z,1018.58
2022-09-23T01:27:51.082Z,1018.63
2022-09-23T01:32:58.292Z,1018.65
2022-09-23T01:38:05.488Z,1018.67
2022-09-23T01:43:12.728Z,1018.64
2022-09-23T01:48:19.995Z,1018.61
2022-09-23T01:53:27.165Z,1018.60
2022-09-23T01:58:34.420Z,1018.53
2022-09-23T02:03:41.686Z,1018.56
2022-09-23T02:08:48.863Z,1018.53
2022-09-23T02:13:56.196Z,1018.50
2022-09-23T02:19:03.458Z,1018.53
2022-09-23T02:24:10.657Z,1018.53
2022-09-23T02:29:17.882Z,1018.53
2022-09-23T02:34:25.149Z,1018.49
2022-09-23T02:39:32.365Z,1018.47
2022-09-23T02:44:39.520Z,1018.42
2022-09-23T02:49:46.746Z,1018.44
2022-09-23T02:54:53.972Z,1018.43
2022-09-23T03:00:01.192Z,1018.40
2022-09-23T03:05:08.418Z,1018.41
2022-09-23T03:10:15.621Z,1018.44
2022-09-23T03:15:22.895Z,1018.47
2022-09-23T03:20:30.112Z,1018.39
2022-09-23T03:25:37.287Z,1018.44
2022-09-23T03:30:44.550Z,1018.44
2022-09-23T03:35:51.819Z,1018.45
2022-09-23T03:40:59.041Z,1018.46
2022-09-23T03:46:06.244Z,1018.43
2022-09-23T03:51:13.477Z,1018.47
2022-09-23T03:56:20.644Z,1018.44
2022-09-23T04:01:27.906Z,1018.45
2022-09-23T04:06:35.059Z,1018.41
2022-09-23T04:11:42.254Z,1018.43
2022-09-23T04:16:49.641Z,1018.45
2022-09-23T04:21:56.773Z,1018.43
2022-09-23T04:27:03.926Z,1018.42
2022-09-23T04:32:11.379Z,1018.44
2022-09-23T04:37:18.650Z,1018.43
2022-09-23T04:42:25.873Z,1018.45
2022-09-23T04:47:33.090Z,1018.50
2022-09-23T04:52:40.370Z,1018.46
2022-09-23T04:57:47.613Z,1018.54
2022-09-23T05:02:54.811Z,1018.52
2022-09-23T05:08:02.098Z,1018.54
2022-09-23T05:13:09.349Z,1018.55
2022-09-23T05:18:20.652Z,1018.59
2022-09-23T05:23:23.965Z,1018.57
2022-09-23T05:28:31.155Z,1018.57
2022-09-23T05:33:38.427Z,1018.49
2022-09-23T05:38:45.711Z,1018.45
2022-09-23T05:43:52.850Z,1018.47
2022-09-23T05:49:02.954Z,1018.50
2022-09-23T05:54:07.486Z,1018.51
2022-09-23T05:59:14.464Z,1018.51
2022-09-23T06:04:21.679Z,1018.57
2022-09-23T06:09:32.830Z,1018.55
2022-09-23T06:14:36.289Z,1018.61
2022-09-23T06:19:43.481Z,1018.62
2022-09-23T06:24:50.804Z,1018.61
2022-09-23T06:29:58.009Z,1018.55
2022-09-23T06:35:07.325Z,1018.54
2022-09-23T06:40:13.488Z,1018.55
2022-09-23T06:45:20.632Z,1018.59
2022-09-23T06:50:27.832Z,1018.60
2022-09-23T06:55:35.059Z,1018.63
2022-09-23T07:00:42.279Z,1018.70
2022-09-23T07:05:49.528Z,1018.66
2022-09-23T07:10:56.778Z,1018.71
2022-09-23T07:16:03.961Z,1018.67
2022-09-23T07:21:11.209Z,1018.79
2022-09-23T07:26:18.493Z,1018.76
2022-09-23T07:31:36.859Z,1018.70
2022-09-23T07:36:33.021Z,1018.74
2022-09-23T07:41:40.135Z,1018.76
2022-09-23T07:46:47.391Z,1018.80
2022-09-23T07:51:55.538Z,1018.78
2022-09-23T07:57:02.748Z,1018.75
2022-09-23T08:02:09.952Z,1018.76
2022-09-23T08:07:17.153Z,1018.73
2022-09-23T08:12:24.486Z,1018.74
2022-09-23T08:17:31.661Z,1018.79
2022-09-23T08:22:38.838Z,1018.83
2022-09-23T08:27:46.099Z,1018.79
2022-09-23T08:32:53.256Z,1018.76
2022-09-23T08:38:00.503Z,1018.72
2022-09-23T08:43:07.692Z,1018.75
2022-09-23T08:48:14.866Z,1018.74
2022-09-23T08:53:22.080Z,1018.75
2022-09-23T08:58:29.353Z,1018.73
2022-09-23T09:03:36.594Z,1018.68
2022-09-23T09:08:43.777Z,1018.66
2022-09-23T09:13:51.044Z,1018.64
2022-09-23T09:18:58.206Z,1018.57
2022-09-23T09:24:05.353Z,1018.51
2022-09-23T09:29:33.805Z,1018.38
2022-09-23T09:34:19.758Z,1018.33
2022-09-23T09:39:26.919Z,1018.25
2022-09-23T09:44:36.801Z,1018.18
2022-09-23T09:49:41.324Z,1018.13
2022-09-23T09:54:48.480Z,1018.04
2022-09-23T09:59:55.736Z,1017.99
2022-09-23T10:05:04.319Z,1018.01
2022-09-23T10:10:28.889Z,1017.96
2022-09-23T10:15:21.384Z,1017.95
2022-09-23T10:20:28.566Z,1017.86
2022-09-23T10:25:35.790Z,1017.89
2022-09-23T10:30:43.094Z,1017.78
2022-09-23T10:35:50.261Z,1017.82
2022-09-23T10:40:57.587Z,1017.77
2022-09-23T10:46:04.814Z,1017.70
2022-09-23T10:51:11.927Z,1017.70
2022-09-23T10:56:19.130Z,1017.66
2022-09-23T11:01:26.477Z,1017.65
2022-09-23T11:06:33.658Z,1017.61
2022-09-23T11:11:40.859Z,1017.58
2022-09-23T11:16:48.118Z,1017.48
2022-09-23T11:21:55.304Z,1017.49
2022-09-23T11:27:02.474Z,1017.43
2022-09-23T11:32:09.665Z,1017.33
2022-09-23T11:37:16.893Z,1017.27
2022-09-23T11:42:24.132Z,1017.25
2022-09-23T11:47:32.824Z,1017.15
2022-09-23T11:52:38.630Z,1017.12
2022-09-23T11:57:49.351Z,1017.09
2022-09-23T12:03:03.915Z,1017.02
2022-09-23T12:08:00.266Z,1016.97
2022-09-23T12:13:07.402Z,1016.89
2022-09-23T12:18:17.443Z,1016.82
2022-09-23T12:23:21.877Z,1016.77
2022-09-23T12:28:29.119Z,1016.71
2022-09-23T12:33:36.397Z,1016.67
2022-09-23T12:38:44.885Z,1016.63
2022-09-23T12:43:52.100Z,1016.55
2022-09-23T12:48:59.343Z,1016.46
2022-09-23T12:54:06.544Z,1016.42
2022-09-23T12:59:13.707Z,1016.36
2022-09-23T13:04:20.861Z,1016.30
2022-09-23T13:09:28.028Z,1016.21
2022-09-23T13:14:35.227Z,1016.19
2022-09-23T13:19:42.459Z,1016.12
2022-09-23T13:24:49.592Z,1016.03
2022-09-23T13:29:56.805Z,1016.08
2022-09-23T13:35:04.060Z,1015.97
2022-09-23T13:40:11.378Z,1015.90
2022-09-23T13:45:18.524Z,1015.91
2022-09-23T13:50:25.735Z,1015.89
2022-09-23T13:55:32.978Z,1015.79
2022-09-23T14:00:40.250Z,1015.77
2022-09-23T14:05:47.408Z,1015.69
2022-09-23T14:10:54.599Z,1015.67
2022-09-23T14:16:01.877Z,1015.65
2022-09-23T14:21:09.022Z,1015.60
2022-09-23T14:26:16.271Z,1015.60
2022-09-23T14:31:23.461Z,1015.57
2022-09-23T14:36:30.717Z,1015.53
2022-09-23T14:41:37.929Z,1015.54
2022-09-23T14:46:45.193Z,1015.50
2022-09-23T14:51:52.489Z,1015.42
2022-09-23T14:56:59.677Z,1015.40
2022-09-23T15:02:06.930Z,1015.42
2022-09-23T15:07:14.207Z,1015.39
2022-09-23T15:12:21.384Z,1015.43
2022-09-23T15:17:28.553Z,1015.35
2022-09-23T15:22:35.801Z,1015.28
2022-09-23T15:27:42.997Z,1015.26
2022-09-23T15:32:50.198Z,1015.25
2022-09-23T15:37:57.505Z,1015.26
2022-09-23T15:43:04.676Z,1015.27
2022-09-23T15:48:11.888Z,1015.20
2022-09-23T15:53:19.117Z,1015.19
2022-09-23T15:58:26.410Z,1015.18
2022-09-23T16:03:33.748Z,1015.19
2022-09-23T16:08:40.953Z,1015.10
2022-09-23T16:13:48.940Z,1015.11
2022-09-23T16:18:56.150Z,1015.07
2022-09-23T16:24:03.687Z,1015.11
2022-09-23T16:29:11.353Z,1015.08
2022-09-23T16:34:18.818Z,1015.14
2022-09-23T16:39:26.012Z,1015.10
2022-09-23T16:44:33.128Z,1015.12
2022-09-23T16:49:40.355Z,1015.20
2022-09-23T16:54:47.525Z,1015.19
2022-09-23T16:59:54.707Z,1015.18
2022-09-23T17:05:01.919Z,1015.13
2022-09-23T17:10:09.242Z,1015.09
2022-09-23T17:15:16.425Z,1015.13
2022-09-23T17:20:23.665Z,1015.16
2022-09-23T17:25:30.881Z,1015.17
2022-09-23T17:30:38.153Z,1015.13
2022-09-23T17:35:45.409Z,1015.15
2022-09-23T17:40:52.672Z,1015.13
2022-09-23T17:45:59.868Z,1015.11
2022-09-23T17:51:07.094Z,1015.09
2022-09-23T17:56:14.385Z,1015.08
2022-09-23T18:01:21.695Z,1015.14
2022-09-23T18:06:28.904Z,1015.15
2022-09-23T18:11:36.207Z,1015.18
2022-09-23T18:16:43.454Z,1015.21
2022-09-23T18:21:50.672Z,1015.26
2022-09-23T18:26:57.940Z,1015.24
2022-09-23T18:32:05.209Z,1015.27
2022-09-23T18:37:15.911Z,1015.25
2022-09-23T18:42:19.750Z,1015.22
2022-09-23T18:47:26.848Z,1015.15
2022-09-23T18:52:34.066Z,1015.13
2022-09-23T18:57:41.284Z,1015.08
2022-09-23T19:02:48.494Z,1015.09
2022-09-23T19:07:55.689Z,1015.11
2022-09-23T19:13:02.898Z,1015.08
2022-09-23T19:18:10.116Z,1015.08
2022-09-23T19:23:17.270Z,1015.05
2022-09-23T19:28:24.530Z,1015.08
2022-09-23T19:33:31.681Z,1015.05
2022-09-23T19:38:38.879Z,1015.06
2022-09-23T19:43:46.118Z,1015.15
2022-09-23T19:48:53.397Z,1015.19
2022-09-23T19:54:00.742Z,1015.18
2022-09-23T19:59:07.925Z,1015.16
2022-09-23T20:04:15.110Z,1015.12
2022-09-23T20:09:22.314Z,1015.12
2022-09-23T20:14:29.536Z,1015.07
2022-09-23T20:19:36.714Z,1015.02
2022-09-23T20:24:43.931Z,1014.95
2022-09-23T20:29:51.165Z,1014.95
2022-09-23T20:34:58.525Z,1015.03
2022-09-23T20:40:05.997Z,1014.95
2022-09-23T20:45:13.153Z,1014.88
2022-09-23T20:50:20.351Z,1014.92
2022-09-23T20:55:27.556Z,1014.84
2022-09-23T21:00:34.824Z,1014.82
2022-09-23T21:05:41.984Z,1014.79
2022-09-23T21:10:49.165Z,1014.78
2022-09-23T21:15:56.499Z,1014.84
2022-09-23T21:21:03.645Z,1014.87
2022-09-23T21:26:10.847Z,1014.89
2022-09-23T21:31:18.116Z,1014.87
2022-09-23T21:36:25.191Z,1014.84
2022-09-23T21:41:32.436Z,1014.88
2022-09-23T21:46:40.492Z,1014.93
2022-09-23T21:51:47.562Z,1015.01
2022-09-23T21:56:54.791Z,1014.92
2022-09-23T22:02:02.080Z,1014.89
2022-09-23T22:07:09.252Z,1014.85
2022-09-23T22:12:16.469Z,1014.75
2022-09-23T22:17:23.730Z,1014.72
2022-09-23T22:22:30.920Z,1014.89
2022-09-23T22:27:38.155Z,1014.89
2022-09-23T22:32:45.396Z,1014.81
2022-09-23T22:37:52.557Z,1014.85
2022-09-23T22:42:59.728Z,1014.96
2022-09-23T22:48:07.015Z,1014.91
2022-09-23T22:53:14.198Z,1014.88
2022-09-23T22:58:32.145Z,1014.88
2022-09-23T23:03:28.656Z,1014.90
2022-09-23T23:08:35.808Z,1014.84
2022-09-23T23:13:43.010Z,1014.90
2022-09-23T23:18:50.283Z,1014.84
2022-09-23T23:23:57.427Z,1014.89
2022-09-23T23:29:04.616Z,1014.79
2022-09-23T23:34:11.902Z,1014.73
2022-09-23T23:39:19.003Z,1014.62
2022-09-23T23:44:26.179Z,1014.57
2022-09-23T23:49:33.470Z,1014.54
2022-09-23T23:54:40.595Z,1014.53
2022-09-23T23:59:47.844Z,1014.51
